Valley View, TX (76272)

9:20 AM CDT on July 27, 2016 (GMT -0500)
Valley View Square | | Change Station

Elev 728 ft 33.49 °N, 97.17 °W | Updated 13 minutes ago

Scattered Clouds
Scattered Clouds
81.2 °F
Feels Like 88 °F
N
1.0
Wind Variable Wind from SSW
Gusts 4.0 mph

Today
High -- | Low -- °F
--% Chance of Precip.
Yesterday
High -- | Low -- °F
Precip. -- in
Pressure 29.99 in
Visibility 10.0 miles
Clouds Scattered Clouds 6000 ft
Heat Index 88 °F
Dew Point 76 °F
Humidity 84%
Rainfall 0.00 in
Snow Depth Not available.
6:37 AM 8:31 PM
Last Quarter, 43% visible
METAR KGLE 271355Z AUTO 00000KT 10SM SCT060 26/24 A2999 RMK AO2 T02600236
Pressure 29.99 in
Visibility 10.0 miles
Clouds Scattered Clouds 6000 ft
Heat Index 88 °F
Dew Point 76 °F
Humidity 84%
Rainfall 0.00 in
Snow Depth Not available.
6:37 AM 8:31 PM
Last Quarter, 43% visible
METAR KGLE 271355Z AUTO 00000KT 10SM SCT060 26/24 A2999 RMK AO2 T02600236

10-Day Weather Forecast

Almanac

Astronomy

Jul. 27, 2016 Rise Set
Actual Time
Civil Twilight
Nautical Twilight
Astronomical Twilight
Moon
Length of Visible Light
Length of Day
Tomorrow will be .
, % of the Moon is Illuminated

Today's Extremes

State Highs State Lows

Community

WunderPhotos

Upload Photos

1,927,846 photos uploaded!

WunderBlog® & News

Nearby

Air Quality

  Air Quality AQ Index Pollutant
Not available.

Snow Depth

Station Depth Elevation

Earthquake Activity

City Distance Mag. Time & Date
Minimum magnitude displayed is 2.5.

Coastal Water Temperatures

Place Temperature

Stations

Nearby Weather Stations

Station Location Temp. Windchill Dew Point Humidity Wind Precip. Elev Updated Type
                   

Watches & Warnings

There are currently no watches in effect.